sensor_id;sensor_type;location;lat;lon;timestamp;P1;durP1;ratioP1;P2;durP2;ratioP2
1370;SDS011;14306;49.942;11.570;2022-07-21T00:00:26;6.00;;;5.40;;
1370;SDS011;14306;49.942;11.570;2022-07-21T00:02:56;9.90;;;5.03;;
1370;SDS011;14306;49.942;11.570;2022-07-21T00:05:25;7.10;;;4.87;;
1370;SDS011;14306;49.942;11.570;2022-07-21T00:07:53;10.10;;;5.10;;
1370;SDS011;14306;49.942;11.570;2022-07-21T00:10:23;8.00;;;5.30;;
1370;SDS011;14306;49.942;11.570;2022-07-21T00:12:52;5.33;;;4.83;;
1370;SDS011;14306;49.942;11.570;2022-07-21T00:15:23;6.13;;;5.00;;
1370;SDS011;14306;49.942;11.570;2022-07-21T00:17:52;5.30;;;4.90;;
1370;SDS011;14306;49.942;11.570;2022-07-21T00:20:25;6.50;;;5.30;;
1370;SDS011;14306;49.942;11.570;2022-07-21T00:22:54;4.83;;;4.33;;
1370;SDS011;14306;49.942;11.570;2022-07-21T00:25:23;5.70;;;4.93;;
1370;SDS011;14306;49.942;11.570;2022-07-21T00:27:59;6.10;;;5.03;;
1370;SDS011;14306;49.942;11.570;2022-07-21T00:30:29;5.37;;;4.40;;
1370;SDS011;14306;49.942;11.570;2022-07-21T00:32:57;6.30;;;5.70;;
1370;SDS011;14306;49.942;11.570;2022-07-21T00:35:27;7.23;;;5.60;;
1370;SDS011;14306;49.942;11.570;2022-07-21T00:37:55;8.67;;;6.90;;
1370;SDS011;14306;49.942;11.570;2022-07-21T00:40:24;9.57;;;6.43;;
1370;SDS011;14306;49.942;11.570;2022-07-21T00:42:57;8.93;;;6.53;;
1370;SDS011;14306;49.942;11.570;2022-07-21T00:45:25;10.10;;;6.63;;
1370;SDS011;14306;49.942;11.570;2022-07-21T00:47:53;10.83;;;5.87;;
1370;SDS011;14306;49.942;11.570;2022-07-21T00:50:21;7.07;;;5.93;;
1370;SDS011;14306;49.942;11.570;2022-07-21T00:52:52;9.13;;;6.17;;
1370;SDS011;14306;49.942;11.570;2022-07-21T00:55:20;6.87;;;5.20;;
1370;SDS011;14306;49.942;11.570;2022-07-21T00:57:53;12.10;;;6.70;;
1370;SDS011;14306;49.942;11.570;2022-07-21T01:00:23;10.33;;;6.10;;
1370;SDS011;14306;49.942;11.570;2022-07-21T01:03:02;8.77;;;6.63;;
1370;SDS011;14306;49.942;11.570;2022-07-21T01:05:32;9.70;;;6.67;;
1370;SDS011;14306;49.942;11.570;2022-07-21T01:08:03;7.80;;;6.50;;
1370;SDS011;14306;49.942;11.570;2022-07-21T01:10:35;7.47;;;6.40;;
1370;SDS011;14306;49.942;11.570;2022-07-21T01:13:04;7.73;;;5.90;;
1370;SDS011;14306;49.942;11.570;2022-07-21T01:15:32;6.50;;;5.50;;
1370;SDS011;14306;49.942;11.570;2022-07-21T01:18:02;9.00;;;6.07;;
1370;SDS011;14306;49.942;11.570;2022-07-21T01:20:34;6.00;;;5.50;;
1370;SDS011;14306;49.942;11.570;2022-07-21T01:23:04;6.40;;;5.60;;
1370;SDS011;14306;49.942;11.570;2022-07-21T01:25:33;7.47;;;6.30;;
1370;SDS011;14306;49.942;11.570;2022-07-21T01:28:01;7.80;;;5.30;;
1370;SDS011;14306;49.942;11.570;2022-07-21T01:30:29;6.17;;;5.50;;
1370;SDS011;14306;49.942;11.570;2022-07-21T01:32:58;9.60;;;5.60;;
1370;SDS011;14306;49.942;11.570;2022-07-21T01:35:26;7.10;;;6.27;;
1370;SDS011;14306;49.942;11.570;2022-07-21T01:37:57;8.70;;;5.87;;
1370;SDS011;14306;49.942;11.570;2022-07-21T01:40:27;9.57;;;6.07;;
1370;SDS011;14306;49.942;11.570;2022-07-21T01:43:14;5.90;;;5.17;;
1370;SDS011;14306;49.942;11.570;2022-07-21T01:45:45;6.63;;;5.83;;
1370;SDS011;14306;49.942;11.570;2022-07-21T01:48:14;7.20;;;5.93;;
1370;SDS011;14306;49.942;11.570;2022-07-21T01:50:43;8.90;;;5.77;;
1370;SDS011;14306;49.942;11.570;2022-07-21T01:53:11;8.67;;;5.90;;
1370;SDS011;14306;49.942;11.570;2022-07-21T01:55:41;11.00;;;5.53;;
1370;SDS011;14306;49.942;11.570;2022-07-21T01:58:10;6.03;;;5.30;;
1370;SDS011;14306;49.942;11.570;2022-07-21T02:00:38;7.27;;;5.43;;
1370;SDS011;14306;49.942;11.570;2022-07-21T02:03:07;8.30;;;5.40;;
1370;SDS011;14306;49.942;11.570;2022-07-21T02:05:35;10.60;;;6.60;;
1370;SDS011;14306;49.942;11.570;2022-07-21T02:08:07;5.37;;;4.87;;
1370;SDS011;14306;49.942;11.570;2022-07-21T02:10:36;8.00;;;6.30;;
1370;SDS011;14306;49.942;11.570;2022-07-21T02:13:07;7.00;;;5.80;;
1370;SDS011;14306;49.942;11.570;2022-07-21T02:15:36;8.23;;;6.20;;
1370;SDS011;14306;49.942;11.570;2022-07-21T02:18:05;6.83;;;5.30;;
1370;SDS011;14306;49.942;11.570;2022-07-21T02:20:35;7.00;;;6.30;;
1370;SDS011;14306;49.942;11.570;2022-07-21T02:23:04;7.30;;;5.90;;
1370;SDS011;14306;49.942;11.570;2022-07-21T02:25:33;11.07;;;5.43;;
1370;SDS011;14306;49.942;11.570;2022-07-21T02:28:01;8.07;;;6.40;;
1370;SDS011;14306;49.942;11.570;2022-07-21T02:30:35;8.90;;;6.00;;
1370;SDS011;14306;49.942;11.570;2022-07-21T02:33:07;10.10;;;6.30;;
1370;SDS011;14306;49.942;11.570;2022-07-21T02:35:36;7.17;;;6.20;;
1370;SDS011;14306;49.942;11.570;2022-07-21T02:38:06;8.93;;;6.90;;
1370;SDS011;14306;49.942;11.570;2022-07-21T02:40:42;11.33;;;6.97;;
1370;SDS011;14306;49.942;11.570;2022-07-21T02:43:11;9.33;;;7.53;;
1370;SDS011;14306;49.942;11.570;2022-07-21T02:45:44;10.70;;;7.53;;
1370;SDS011;14306;49.942;11.570;2022-07-21T02:48:13;8.13;;;7.33;;
1370;SDS011;14306;49.942;11.570;2022-07-21T02:50:42;9.40;;;6.90;;
1370;SDS011;14306;49.942;11.570;2022-07-21T02:53:12;8.33;;;7.53;;
1370;SDS011;14306;49.942;11.570;2022-07-21T02:55:49;11.70;;;8.80;;
1370;SDS011;14306;49.942;11.570;2022-07-21T02:58:24;10.50;;;8.20;;
1370;SDS011;14306;49.942;11.570;2022-07-21T03:01:03;9.70;;;7.83;;
1370;SDS011;14306;49.942;11.570;2022-07-21T03:03:42;11.33;;;7.13;;
1370;SDS011;14306;49.942;11.570;2022-07-21T03:06:26;8.43;;;7.50;;
1370;SDS011;14306;49.942;11.570;2022-07-21T03:09:03;10.87;;;7.77;;
1370;SDS011;14306;49.942;11.570;2022-07-21T03:11:38;11.10;;;7.97;;
1370;SDS011;14306;49.942;11.570;2022-07-21T03:14:17;9.43;;;8.13;;
1370;SDS011;14306;49.942;11.570;2022-07-21T03:16:49;11.37;;;9.00;;
1370;SDS011;14306;49.942;11.570;2022-07-21T03:19:23;9.80;;;8.23;;
1370;SDS011;14306;49.942;11.570;2022-07-21T03:21:53;11.70;;;9.40;;
1370;SDS011;14306;49.942;11.570;2022-07-21T03:24:22;10.73;;;8.77;;
1370;SDS011;14306;49.942;11.570;2022-07-21T03:26:51;10.80;;;8.80;;
1370;SDS011;14306;49.942;11.570;2022-07-21T03:29:21;12.47;;;9.47;;
1370;SDS011;14306;49.942;11.570;2022-07-21T03:31:54;14.70;;;9.13;;
1370;SDS011;14306;49.942;11.570;2022-07-21T03:34:23;13.43;;;9.57;;
1370;SDS011;14306;49.942;11.570;2022-07-21T03:36:54;11.30;;;8.73;;
1370;SDS011;14306;49.942;11.570;2022-07-21T03:39:26;13.03;;;9.60;;
1370;SDS011;14306;49.942;11.570;2022-07-21T03:41:55;17.10;;;9.70;;
1370;SDS011;14306;49.942;11.570;2022-07-21T03:44:25;11.77;;;9.90;;
1370;SDS011;14306;49.942;11.570;2022-07-21T03:46:57;11.20;;;8.70;;
1370;SDS011;14306;49.942;11.570;2022-07-21T03:49:30;12.17;;;8.57;;
1370;SDS011;14306;49.942;11.570;2022-07-21T03:52:01;12.03;;;8.90;;
1370;SDS011;14306;49.942;11.570;2022-07-21T03:54:34;12.17;;;9.10;;
1370;SDS011;14306;49.942;11.570;2022-07-21T03:57:15;15.70;;;9.30;;
1370;SDS011;14306;49.942;11.570;2022-07-21T03:59:45;13.60;;;9.27;;
1370;SDS011;14306;49.942;11.570;2022-07-21T04:02:15;12.73;;;8.77;;
1370;SDS011;14306;49.942;11.570;2022-07-21T04:04:45;10.50;;;9.37;;
1370;SDS011;14306;49.942;11.570;2022-07-21T04:07:20;16.43;;;10.60;;
1370;SDS011;14306;49.942;11.570;2022-07-21T04:09:56;11.63;;;9.60;;
1370;SDS011;14306;49.942;11.570;2022-07-21T04:12:34;10.23;;;9.20;;
1370;SDS011;14306;49.942;11.570;2022-07-21T04:15:09;9.53;;;8.53;;
1370;SDS011;14306;49.942;11.570;2022-07-21T04:17:45;11.73;;;10.10;;
1370;SDS011;14306;49.942;11.570;2022-07-21T04:20:15;12.47;;;7.83;;
1370;SDS011;14306;49.942;11.570;2022-07-21T04:22:52;8.20;;;7.50;;
1370;SDS011;14306;49.942;11.570;2022-07-21T04:25:26;9.20;;;8.30;;
1370;SDS011;14306;49.942;11.570;2022-07-21T04:27:59;12.73;;;7.30;;
1370;SDS011;14306;49.942;11.570;2022-07-21T04:30:28;9.80;;;8.00;;
1370;SDS011;14306;49.942;11.570;2022-07-21T04:33:00;11.43;;;7.83;;
1370;SDS011;14306;49.942;11.570;2022-07-21T04:35:29;9.33;;;7.80;;
1370;SDS011;14306;49.942;11.570;2022-07-21T04:38:00;10.57;;;8.17;;
1370;SDS011;14306;49.942;11.570;2022-07-21T04:40:29;8.60;;;7.80;;
1370;SDS011;14306;49.942;11.570;2022-07-21T04:43:01;8.87;;;7.97;;
1370;SDS011;14306;49.942;11.570;2022-07-21T04:45:34;11.40;;;8.83;;
1370;SDS011;14306;49.942;11.570;2022-07-21T04:48:20;18.40;;;8.90;;
1370;SDS011;14306;49.942;11.570;2022-07-21T04:50:54;12.70;;;7.80;;
1370;SDS011;14306;49.942;11.570;2022-07-21T04:53:23;12.67;;;9.03;;
1370;SDS011;14306;49.942;11.570;2022-07-21T04:55:52;9.73;;;8.27;;
1370;SDS011;14306;49.942;11.570;2022-07-21T04:58:23;8.97;;;7.70;;
1370;SDS011;14306;49.942;11.570;2022-07-21T05:00:58;11.17;;;8.63;;
1370;SDS011;14306;49.942;11.570;2022-07-21T05:03:36;9.20;;;8.30;;
1370;SDS011;14306;49.942;11.570;2022-07-21T05:06:09;10.87;;;9.00;;
1370;SDS011;14306;49.942;11.570;2022-07-21T05:08:47;14.50;;;8.30;;
1370;SDS011;14306;49.942;11.570;2022-07-21T05:11:17;14.73;;;7.90;;
1370;SDS011;14306;49.942;11.570;2022-07-21T05:13:52;12.30;;;8.13;;
1370;SDS011;14306;49.942;11.570;2022-07-21T05:16:21;12.07;;;7.70;;
1370;SDS011;14306;49.942;11.570;2022-07-21T05:18:57;8.97;;;7.13;;
1370;SDS011;14306;49.942;11.570;2022-07-21T05:21:26;9.13;;;6.77;;
1370;SDS011;14306;49.942;11.570;2022-07-21T05:23:54;7.27;;;6.53;;
1370;SDS011;14306;49.942;11.570;2022-07-21T05:26:25;14.43;;;8.00;;
1370;SDS011;14306;49.942;11.570;2022-07-21T05:28:58;13.70;;;7.97;;
1370;SDS011;14306;49.942;11.570;2022-07-21T05:31:26;8.23;;;6.70;;
1370;SDS011;14306;49.942;11.570;2022-07-21T05:34:02;9.20;;;6.30;;
1370;SDS011;14306;49.942;11.570;2022-07-21T05:36:34;8.50;;;6.67;;
1370;SDS011;14306;49.942;11.570;2022-07-21T05:39:04;8.20;;;6.00;;
1370;SDS011;14306;49.942;11.570;2022-07-21T05:41:33;9.27;;;6.60;;
1370;SDS011;14306;49.942;11.570;2022-07-21T05:44:04;9.60;;;6.40;;
1370;SDS011;14306;49.942;11.570;2022-07-21T05:46:32;7.70;;;6.37;;
1370;SDS011;14306;49.942;11.570;2022-07-21T05:49:03;9.00;;;6.80;;
1370;SDS011;14306;49.942;11.570;2022-07-21T05:51:35;7.47;;;6.23;;
1370;SDS011;14306;49.942;11.570;2022-07-21T05:54:11;8.80;;;6.77;;
1370;SDS011;14306;49.942;11.570;2022-07-21T05:56:40;9.20;;;7.47;;
1370;SDS011;14306;49.942;11.570;2022-07-21T05:59:08;9.33;;;7.53;;
1370;SDS011;14306;49.942;11.570;2022-07-21T06:01:37;10.83;;;7.20;;
1370;SDS011;14306;49.942;11.570;2022-07-21T06:04:06;8.10;;;7.30;;
1370;SDS011;14306;49.942;11.570;2022-07-21T06:06:35;8.20;;;7.07;;
1370;SDS011;14306;49.942;11.570;2022-07-21T06:09:04;9.40;;;7.20;;
1370;SDS011;14306;49.942;11.570;2022-07-21T06:11:36;9.60;;;8.57;;
1370;SDS011;14306;49.942;11.570;2022-07-21T06:14:08;8.17;;;7.37;;
1370;SDS011;14306;49.942;11.570;2022-07-21T06:16:42;11.80;;;7.70;;
1370;SDS011;14306;49.942;11.570;2022-07-21T06:19:12;9.23;;;8.33;;
1370;SDS011;14306;49.942;11.570;2022-07-21T06:21:46;13.47;;;9.40;;
1370;SDS011;14306;49.942;11.570;2022-07-21T06:24:18;12.63;;;10.70;;
1370;SDS011;14306;49.942;11.570;2022-07-21T06:26:50;11.37;;;10.13;;
1370;SDS011;14306;49.942;11.570;2022-07-21T06:29:28;16.63;;;10.80;;
1370;SDS011;14306;49.942;11.570;2022-07-21T06:32:00;23.53;;;12.10;;
1370;SDS011;14306;49.942;11.570;2022-07-21T06:34:30;14.77;;;12.93;;
1370;SDS011;14306;49.942;11.570;2022-07-21T06:36:59;13.47;;;11.40;;
1370;SDS011;14306;49.942;11.570;2022-07-21T06:39:26;16.63;;;13.67;;
1370;SDS011;14306;49.942;11.570;2022-07-21T06:41:55;15.40;;;13.20;;
1370;SDS011;14306;49.942;11.570;2022-07-21T06:44:23;18.47;;;14.10;;
1370;SDS011;14306;49.942;11.570;2022-07-21T06:46:52;16.27;;;13.00;;
1370;SDS011;14306;49.942;11.570;2022-07-21T06:49:20;16.07;;;14.10;;
1370;SDS011;14306;49.942;11.570;2022-07-21T06:51:50;20.80;;;15.60;;
1370;SDS011;14306;49.942;11.570;2022-07-21T06:54:18;19.10;;;15.90;;
1370;SDS011;14306;49.942;11.570;2022-07-21T06:56:49;21.03;;;16.17;;
1370;SDS011;14306;49.942;11.570;2022-07-21T06:59:17;22.57;;;17.03;;
1370;SDS011;14306;49.942;11.570;2022-07-21T07:01:45;23.40;;;17.20;;
1370;SDS011;14306;49.942;11.570;2022-07-21T07:08:15;17.20;;;14.70;;
1370;SDS011;14306;49.942;11.570;2022-07-21T07:10:44;24.93;;;18.40;;
1370;SDS011;14306;49.942;11.570;2022-07-21T07:13:12;21.30;;;16.27;;
1370;SDS011;14306;49.942;11.570;2022-07-21T07:16:03;19.77;;;15.70;;
1370;SDS011;14306;49.942;11.570;2022-07-21T07:18:31;25.60;;;17.37;;
1370;SDS011;14306;49.942;11.570;2022-07-21T07:21:00;24.50;;;17.87;;
1370;SDS011;14306;49.942;11.570;2022-07-21T07:23:37;22.60;;;17.03;;
1370;SDS011;14306;49.942;11.570;2022-07-21T07:26:06;19.97;;;17.33;;
1370;SDS011;14306;49.942;11.570;2022-07-21T07:28:38;21.27;;;16.73;;
1370;SDS011;14306;49.942;11.570;2022-07-21T07:31:09;26.33;;;19.10;;
1370;SDS011;14306;49.942;11.570;2022-07-21T07:33:38;20.30;;;18.00;;
1370;SDS011;14306;49.942;11.570;2022-07-21T07:36:08;19.47;;;17.43;;
1370;SDS011;14306;49.942;11.570;2022-07-21T07:38:39;24.57;;;18.77;;
1370;SDS011;14306;49.942;11.570;2022-07-21T07:41:08;28.00;;;17.83;;
1370;SDS011;14306;49.942;11.570;2022-07-21T07:43:36;24.40;;;18.53;;
1370;SDS011;14306;49.942;11.570;2022-07-21T07:46:05;22.10;;;18.67;;
1370;SDS011;14306;49.942;11.570;2022-07-21T07:48:33;21.10;;;16.90;;
1370;SDS011;14306;49.942;11.570;2022-07-21T07:51:03;20.87;;;17.77;;
1370;SDS011;14306;49.942;11.570;2022-07-21T07:53:34;21.57;;;18.70;;
1370;SDS011;14306;49.942;11.570;2022-07-21T07:56:05;23.20;;;19.40;;
1370;SDS011;14306;49.942;11.570;2022-07-21T07:58:34;21.40;;;18.90;;
1370;SDS011;14306;49.942;11.570;2022-07-21T08:01:06;21.70;;;18.37;;
1370;SDS011;14306;49.942;11.570;2022-07-21T08:03:35;21.50;;;18.23;;
1370;SDS011;14306;49.942;11.570;2022-07-21T08:06:04;24.70;;;19.57;;
1370;SDS011;14306;49.942;11.570;2022-07-21T08:08:33;20.83;;;16.70;;
1370;SDS011;14306;49.942;11.570;2022-07-21T08:11:01;19.50;;;16.90;;
1370;SDS011;14306;49.942;11.570;2022-07-21T08:13:30;22.37;;;17.30;;
1370;SDS011;14306;49.942;11.570;2022-07-21T08:15:59;17.57;;;15.77;;
1370;SDS011;14306;49.942;11.570;2022-07-21T08:18:27;19.07;;;16.33;;
1370;SDS011;14306;49.942;11.570;2022-07-21T08:20:55;16.57;;;14.53;;
1370;SDS011;14306;49.942;11.570;2022-07-21T08:23:25;20.50;;;15.17;;
1370;SDS011;14306;49.942;11.570;2022-07-21T08:25:54;16.77;;;14.30;;
1370;SDS011;14306;49.942;11.570;2022-07-21T08:28:22;16.00;;;13.97;;
1370;SDS011;14306;49.942;11.570;2022-07-21T08:30:51;18.10;;;16.30;;
1370;SDS011;14306;49.942;11.570;2022-07-21T08:33:20;17.50;;;13.80;;
1370;SDS011;14306;49.942;11.570;2022-07-21T08:35:47;15.90;;;14.13;;
1370;SDS011;14306;49.942;11.570;2022-07-21T08:38:16;18.60;;;13.20;;
1370;SDS011;14306;49.942;11.570;2022-07-21T08:40:45;14.57;;;12.90;;
1370;SDS011;14306;49.942;11.570;2022-07-21T08:43:14;16.20;;;14.50;;
1370;SDS011;14306;49.942;11.570;2022-07-21T08:45:42;16.37;;;14.73;;
1370;SDS011;14306;49.942;11.570;2022-07-21T08:48:12;18.17;;;16.10;;
1370;SDS011;14306;49.942;11.570;2022-07-21T08:50:45;15.70;;;14.10;;
1370;SDS011;14306;49.942;11.570;2022-07-21T08:53:14;16.77;;;13.90;;
1370;SDS011;14306;49.942;11.570;2022-07-21T08:55:42;15.03;;;13.30;;
1370;SDS011;14306;49.942;11.570;2022-07-21T08:58:10;19.93;;;14.80;;
1370;SDS011;14306;49.942;11.570;2022-07-21T09:00:40;18.53;;;15.27;;
1370;SDS011;14306;49.942;11.570;2022-07-21T09:03:15;14.63;;;13.23;;
1370;SDS011;14306;49.942;11.570;2022-07-21T09:05:58;15.20;;;13.00;;
1370;SDS011;14306;49.942;11.570;2022-07-21T09:08:28;16.67;;;13.70;;
1370;SDS011;14306;49.942;11.570;2022-07-21T09:11:07;15.23;;;13.17;;
1370;SDS011;14306;49.942;11.570;2022-07-21T09:13:37;15.87;;;14.27;;
1370;SDS011;14306;49.942;11.570;2022-07-21T09:16:05;16.40;;;13.90;;
1370;SDS011;14306;49.942;11.570;2022-07-21T09:18:36;15.00;;;13.50;;
1370;SDS011;14306;49.942;11.570;2022-07-21T09:21:15;14.80;;;13.40;;
1370;SDS011;14306;49.942;11.570;2022-07-21T09:23:44;16.67;;;14.10;;
1370;SDS011;14306;49.942;11.570;2022-07-21T09:26:12;17.60;;;13.80;;
1370;SDS011;14306;49.942;11.570;2022-07-21T09:28:40;17.13;;;14.37;;
1370;SDS011;14306;49.942;11.570;2022-07-21T09:31:09;14.80;;;12.70;;
1370;SDS011;14306;49.942;11.570;2022-07-21T09:33:40;14.90;;;13.40;;
1370;SDS011;14306;49.942;11.570;2022-07-21T09:36:10;13.63;;;11.90;;
1370;SDS011;14306;49.942;11.570;2022-07-21T09:38:42;14.50;;;12.03;;
1370;SDS011;14306;49.942;11.570;2022-07-21T09:41:12;17.27;;;11.50;;
1370;SDS011;14306;49.942;11.570;2022-07-21T09:43:42;12.67;;;11.40;;
1370;SDS011;14306;49.942;11.570;2022-07-21T09:46:17;13.93;;;12.50;;
1370;SDS011;14306;49.942;11.570;2022-07-21T09:48:50;12.77;;;11.57;;
1370;SDS011;14306;49.942;11.570;2022-07-21T09:51:39;13.97;;;12.50;;
1370;SDS011;14306;49.942;11.570;2022-07-21T09:54:11;14.73;;;12.90;;
1370;SDS011;14306;49.942;11.570;2022-07-21T09:56:41;14.77;;;13.27;;
1370;SDS011;14306;49.942;11.570;2022-07-21T09:59:14;13.87;;;12.47;;
1370;SDS011;14306;49.942;11.570;2022-07-21T10:01:41;13.07;;;11.73;;
1370;SDS011;14306;49.942;11.570;2022-07-21T10:04:13;14.83;;;13.43;;
1370;SDS011;14306;49.942;11.570;2022-07-21T10:06:41;15.10;;;12.37;;
1370;SDS011;14306;49.942;11.570;2022-07-21T10:09:10;13.83;;;12.27;;
1370;SDS011;14306;49.942;11.570;2022-07-21T10:11:39;14.40;;;12.80;;
1370;SDS011;14306;49.942;11.570;2022-07-21T10:14:08;12.40;;;11.30;;
1370;SDS011;14306;49.942;11.570;2022-07-21T10:16:38;11.53;;;10.33;;
1370;SDS011;14306;49.942;11.570;2022-07-21T10:19:18;11.93;;;10.73;;
1370;SDS011;14306;49.942;11.570;2022-07-21T10:21:49;13.50;;;10.70;;
1370;SDS011;14306;49.942;11.570;2022-07-21T10:24:23;14.13;;;9.83;;
1370;SDS011;14306;49.942;11.570;2022-07-21T10:26:59;12.10;;;10.77;;
1370;SDS011;14306;49.942;11.570;2022-07-21T10:32:18;11.00;;;10.10;;
1370;SDS011;14306;49.942;11.570;2022-07-21T10:34:49;11.57;;;9.20;;
1370;SDS011;14306;49.942;11.570;2022-07-21T10:40:35;10.03;;;9.10;;
1370;SDS011;14306;49.942;11.570;2022-07-21T10:49:02;8.33;;;7.53;;
1370;SDS011;14306;49.942;11.570;2022-07-21T10:51:33;8.83;;;7.93;;
1370;SDS011;14306;49.942;11.570;2022-07-21T10:54:19;8.53;;;7.87;;
1370;SDS011;14306;49.942;11.570;2022-07-21T11:02:55;7.77;;;7.07;;
1370;SDS011;14306;49.942;11.570;2022-07-21T11:05:25;8.80;;;7.90;;
1370;SDS011;14306;49.942;11.570;2022-07-21T11:10:44;8.33;;;7.63;;
1370;SDS011;14306;49.942;11.570;2022-07-21T11:13:14;6.57;;;6.07;;
1370;SDS011;14306;49.942;11.570;2022-07-21T11:15:44;9.63;;;7.40;;
1370;SDS011;14306;49.942;11.570;2022-07-21T11:18:21;7.63;;;6.93;;
1370;SDS011;14306;49.942;11.570;2022-07-21T11:21:09;6.60;;;5.93;;
1370;SDS011;14306;49.942;11.570;2022-07-21T11:23:41;5.17;;;4.70;;
1370;SDS011;14306;49.942;11.570;2022-07-21T11:26:12;6.00;;;5.50;;
1370;SDS011;14306;49.942;11.570;2022-07-21T11:28:42;5.50;;;5.10;;
1370;SDS011;14306;49.942;11.570;2022-07-21T11:31:17;5.50;;;4.90;;
1370;SDS011;14306;49.942;11.570;2022-07-21T11:33:47;6.30;;;5.80;;
1370;SDS011;14306;49.942;11.570;2022-07-21T11:36:25;5.97;;;5.40;;
1370;SDS011;14306;49.942;11.570;2022-07-21T11:39:03;4.77;;;4.40;;
1370;SDS011;14306;49.942;11.570;2022-07-21T11:41:33;7.23;;;6.17;;
1370;SDS011;14306;49.942;11.570;2022-07-21T11:44:03;5.47;;;4.97;;
1370;SDS011;14306;49.942;11.570;2022-07-21T11:46:45;5.40;;;5.00;;
1370;SDS011;14306;49.942;11.570;2022-07-21T11:49:14;5.50;;;4.90;;
1370;SDS011;14306;49.942;11.570;2022-07-21T11:51:46;5.80;;;5.10;;
1370;SDS011;14306;49.942;11.570;2022-07-21T11:54:20;5.93;;;5.30;;
1370;SDS011;14306;49.942;11.570;2022-07-21T11:56:56;7.33;;;5.23;;
1370;SDS011;14306;49.942;11.570;2022-07-21T11:59:26;7.53;;;5.90;;
1370;SDS011;14306;49.942;11.570;2022-07-21T12:01:56;5.80;;;5.20;;
1370;SDS011;14306;49.942;11.570;2022-07-21T12:04:29;6.00;;;5.50;;
1370;SDS011;14306;49.942;11.570;2022-07-21T12:07:01;9.60;;;5.40;;
1370;SDS011;14306;49.942;11.570;2022-07-21T12:09:32;5.13;;;4.73;;
1370;SDS011;14306;49.942;11.570;2022-07-21T12:12:00;5.57;;;4.63;;
1370;SDS011;14306;49.942;11.570;2022-07-21T12:14:41;4.93;;;4.50;;
1370;SDS011;14306;49.942;11.570;2022-07-21T12:17:32;6.60;;;4.80;;
1370;SDS011;14306;49.942;11.570;2022-07-21T12:20:02;5.13;;;4.63;;
1370;SDS011;14306;49.942;11.570;2022-07-21T12:22:33;4.57;;;4.17;;
1370;SDS011;14306;49.942;11.570;2022-07-21T12:25:04;7.03;;;5.40;;
1370;SDS011;14306;49.942;11.570;2022-07-21T12:27:37;5.27;;;4.87;;
1370;SDS011;14306;49.942;11.570;2022-07-21T12:30:07;5.57;;;5.07;;
1370;SDS011;14306;49.942;11.570;2022-07-21T12:32:38;4.70;;;4.30;;
1370;SDS011;14306;49.942;11.570;2022-07-21T12:35:18;8.03;;;4.70;;
1370;SDS011;14306;49.942;11.570;2022-07-21T12:37:58;5.07;;;4.67;;
1370;SDS011;14306;49.942;11.570;2022-07-21T12:40:29;7.60;;;5.03;;
1370;SDS011;14306;49.942;11.570;2022-07-21T12:43:09;5.37;;;4.97;;
1370;SDS011;14306;49.942;11.570;2022-07-21T12:45:43;8.40;;;6.13;;
1370;SDS011;14306;49.942;11.570;2022-07-21T12:48:17;5.80;;;5.20;;
1370;SDS011;14306;49.942;11.570;2022-07-21T12:51:03;5.80;;;5.07;;
1370;SDS011;14306;49.942;11.570;2022-07-21T12:53:41;7.10;;;5.33;;
1370;SDS011;14306;49.942;11.570;2022-07-21T12:56:13;5.33;;;4.83;;
1370;SDS011;14306;49.942;11.570;2022-07-21T12:58:43;5.10;;;4.60;;
1370;SDS011;14306;49.942;11.570;2022-07-21T13:01:11;5.10;;;4.60;;
1370;SDS011;14306;49.942;11.570;2022-07-21T13:03:39;4.80;;;4.00;;
1370;SDS011;14306;49.942;11.570;2022-07-21T13:06:08;5.03;;;4.40;;
1370;SDS011;14306;49.942;11.570;2022-07-21T13:08:37;4.90;;;4.20;;
1370;SDS011;14306;49.942;11.570;2022-07-21T13:11:06;5.47;;;4.97;;
1370;SDS011;14306;49.942;11.570;2022-07-21T13:13:36;5.20;;;4.70;;
1370;SDS011;14306;49.942;11.570;2022-07-21T13:16:04;7.07;;;5.50;;
1370;SDS011;14306;49.942;11.570;2022-07-21T13:18:33;6.27;;;4.90;;
1370;SDS011;14306;49.942;11.570;2022-07-21T13:21:02;6.07;;;4.73;;
1370;SDS011;14306;49.942;11.570;2022-07-21T13:23:30;5.90;;;5.00;;
1370;SDS011;14306;49.942;11.570;2022-07-21T13:25:59;5.17;;;4.43;;
1370;SDS011;14306;49.942;11.570;2022-07-21T13:28:32;5.47;;;4.33;;
1370;SDS011;14306;49.942;11.570;2022-07-21T13:31:05;5.20;;;4.70;;
1370;SDS011;14306;49.942;11.570;2022-07-21T13:33:34;5.43;;;4.47;;
1370;SDS011;14306;49.942;11.570;2022-07-21T13:36:03;6.30;;;4.87;;
1370;SDS011;14306;49.942;11.570;2022-07-21T13:38:31;4.43;;;4.13;;
1370;SDS011;14306;49.942;11.570;2022-07-21T13:40:59;4.77;;;4.37;;
1370;SDS011;14306;49.942;11.570;2022-07-21T13:43:47;5.73;;;4.07;;
1370;SDS011;14306;49.942;11.570;2022-07-21T13:46:17;5.10;;;3.47;;
1370;SDS011;14306;49.942;11.570;2022-07-21T13:48:45;4.63;;;4.23;;
1370;SDS011;14306;49.942;11.570;2022-07-21T13:51:14;7.23;;;4.40;;
1370;SDS011;14306;49.942;11.570;2022-07-21T13:53:43;4.80;;;4.20;;
1370;SDS011;14306;49.942;11.570;2022-07-21T13:56:13;4.60;;;4.20;;
1370;SDS011;14306;49.942;11.570;2022-07-21T13:58:41;5.60;;;4.57;;
1370;SDS011;14306;49.942;11.570;2022-07-21T14:01:10;4.33;;;3.93;;
1370;SDS011;14306;49.942;11.570;2022-07-21T14:03:40;3.90;;;3.20;;
1370;SDS011;14306;49.942;11.570;2022-07-21T14:06:09;4.80;;;3.83;;
1370;SDS011;14306;49.942;11.570;2022-07-21T14:08:40;5.20;;;4.03;;
1370;SDS011;14306;49.942;11.570;2022-07-21T14:11:08;4.47;;;3.70;;
1370;SDS011;14306;49.942;11.570;2022-07-21T14:13:37;4.40;;;3.50;;
1370;SDS011;14306;49.942;11.570;2022-07-21T14:16:05;3.77;;;3.47;;
1370;SDS011;14306;49.942;11.570;2022-07-21T14:18:33;4.27;;;3.03;;
1370;SDS011;14306;49.942;11.570;2022-07-21T14:21:03;3.97;;;3.57;;
1370;SDS011;14306;49.942;11.570;2022-07-21T14:23:31;4.33;;;3.90;;
1370;SDS011;14306;49.942;11.570;2022-07-21T14:25:59;4.50;;;4.10;;
1370;SDS011;14306;49.942;11.570;2022-07-21T14:28:27;4.03;;;3.63;;
1370;SDS011;14306;49.942;11.570;2022-07-21T14:30:55;4.67;;;3.90;;
1370;SDS011;14306;49.942;11.570;2022-07-21T14:33:26;4.00;;;3.60;;
1370;SDS011;14306;49.942;11.570;2022-07-21T14:35:55;4.63;;;3.60;;
1370;SDS011;14306;49.942;11.570;2022-07-21T14:38:24;3.97;;;3.67;;
1370;SDS011;14306;49.942;11.570;2022-07-21T14:40:52;4.53;;;3.63;;
1370;SDS011;14306;49.942;11.570;2022-07-21T14:43:20;6.50;;;3.80;;
1370;SDS011;14306;49.942;11.570;2022-07-21T14:45:48;7.00;;;3.73;;
1370;SDS011;14306;49.942;11.570;2022-07-21T14:48:16;5.20;;;4.27;;
1370;SDS011;14306;49.942;11.570;2022-07-21T14:50:44;5.30;;;3.90;;
1370;SDS011;14306;49.942;11.570;2022-07-21T14:53:12;4.93;;;3.73;;
1370;SDS011;14306;49.942;11.570;2022-07-21T14:55:41;7.90;;;3.80;;
1370;SDS011;14306;49.942;11.570;2022-07-21T14:58:10;6.47;;;3.93;;
1370;SDS011;14306;49.942;11.570;2022-07-21T15:00:38;4.50;;;3.50;;
1370;SDS011;14306;49.942;11.570;2022-07-21T15:03:07;4.17;;;3.87;;
1370;SDS011;14306;49.942;11.570;2022-07-21T15:05:35;5.20;;;4.70;;
1370;SDS011;14306;49.942;11.570;2022-07-21T15:08:03;4.60;;;3.83;;
1370;SDS011;14306;49.942;11.570;2022-07-21T15:10:38;4.33;;;3.53;;
1370;SDS011;14306;49.942;11.570;2022-07-21T15:13:08;6.00;;;3.87;;
1370;SDS011;14306;49.942;11.570;2022-07-21T15:15:35;4.50;;;4.10;;
1370;SDS011;14306;49.942;11.570;2022-07-21T15:18:04;3.20;;;2.90;;
1370;SDS011;14306;49.942;11.570;2022-07-21T15:20:32;7.33;;;4.50;;
1370;SDS011;14306;49.942;11.570;2022-07-21T15:23:00;4.17;;;3.80;;
1370;SDS011;14306;49.942;11.570;2022-07-21T15:25:28;5.20;;;3.90;;